Time;durP1;ratioP1;P1;durP2;ratioP2;P2;SDS_P1;SDS_P2;PMS_P1;PMS_P2;Temp;Humidity;BMP_temperature;BMP_pressure;BME280_temperature;BME280_humidity;BME280_pressure;Samples;Min_cycle;Max_cycle;Signal;HPM_P1;HPM_P2
2023/10/28 00:00:13;;;;;;;0.50;0.50;;;;;;;;;;5014106;28;20489;-87
2023/10/28 00:02:40;;;;;;;0.60;0.60;;;;;;;;;;5020374;28;20030;-87
2023/10/28 00:05:06;;;;;;;0.50;0.50;;;;;;;;;;5024344;28;20401;-87
2023/10/28 00:07:32;;;;;;;0.50;0.50;;;;;;;;;;5016537;28;20114;-87
2023/10/28 00:09:58;;;;;;;0.50;0.50;;;461.70;2380.80;;;;;;5019119;28;20501;-86
2023/10/28 00:12:24;;;;;;;0.50;0.50;;;461.50;2380.80;;;;;;5018044;28;20142;-86
2023/10/28 00:14:50;;;;;;;0.50;0.50;;;461.40;2380.80;;;;;;5017933;28;20037;-86
2023/10/28 00:17:17;;;;;;;0.40;0.40;;;461.30;2380.80;;;;;;5017824;28;20033;-86
2023/10/28 00:19:44;;;;;;;0.50;0.50;;;;;;;;;;5018848;28;20080;-86
2023/10/28 00:22:10;;;;;;;0.50;0.50;;;;;;;;;;5017536;28;20048;-87
2023/10/28 00:24:36;;;;;;;0.50;0.50;;;;;;;;;;5017054;28;20532;-86
2023/10/28 00:27:03;;;;;;;0.50;0.50;;;;;;;;;;5017377;28;20156;-87
2023/10/28 00:29:29;;;;;;;0.50;0.50;;;;;;;;;;5016924;28;20033;-87
2023/10/28 00:31:55;;;;;;;0.57;0.57;;;;;;;;;;5017331;28;20056;-87
2023/10/28 00:34:22;;;;;;;0.50;0.50;;;;;;;;;;5017675;28;20111;-87
2023/10/28 00:36:48;;;;;;;0.50;0.50;;;;;;;;;;5016803;28;20050;-87
2023/10/28 00:39:14;;;;;;;0.50;0.50;;;;;;;;;;5017956;28;20109;-87
2023/10/28 00:41:40;;;;;;;0.50;0.50;;;;;;;;;;5017335;28;20044;-87
2023/10/28 00:44:06;;;;;;;0.50;0.50;;;;;;;;;;5018572;28;20418;-87
2023/10/28 00:46:32;;;;;;;0.50;0.50;;;;;;;;;;5017436;28;20488;-87
2023/10/28 00:48:59;;;;;;;0.50;0.50;;;;;;;;;;5017474;28;20488;-87
2023/10/28 00:51:25;;;;;;;0.57;0.57;;;;;;;;;;5016883;28;20049;-87
2023/10/28 00:53:52;;;;;;;0.50;0.50;;;;;;;;;;5017141;28;20462;-87
2023/10/28 00:56:19;;;;;;;0.55;0.55;;;;;;;;;;5017020;28;20450;-87
2023/10/28 00:58:46;;;;;;;0.50;0.50;;;;;;;;;;5017066;28;20028;-87
2023/10/28 01:01:14;;;;;;;0.50;0.50;;;;;;;;;;5029157;28;20026;-87
2023/10/28 01:03:40;;;;;;;0.50;0.50;;;;;;;;;;5028132;28;20105;-87
2023/10/28 01:06:09;;;;;;;0.60;0.60;;;;;;;;;;5029014;28;20030;-87
2023/10/28 01:08:35;;;;;;;0.50;0.50;;;;;;;;;;5027294;28;20022;-87
2023/10/28 01:11:01;;;;;;;0.40;0.40;;;;;;;;;;5027223;28;20033;-87
2023/10/28 01:13:28;;;;;;;0.43;0.43;;;;;;;;;;5026864;28;20058;-86
2023/10/28 01:15:54;;;;;;;0.60;0.60;;;;;;;;;;5028934;28;20026;-84
2023/10/28 01:18:23;;;;;;;0.50;0.50;;;;;;;;;;5028560;28;20025;-85
2023/10/28 01:20:50;;;;;;;0.60;0.60;;;461.20;2380.80;;;;;;4997006;28;20030;-84
2023/10/28 01:23:16;;;;;;;0.50;0.50;;;460.80;2380.80;;;;;;5029360;28;20026;-86
2023/10/28 01:25:42;;;;;;;0.40;0.40;;;;;;;;;;5030654;28;20105;-86
2023/10/28 01:28:08;;;;;;;0.50;0.50;;;;;;;;;;5030004;28;20033;-84
2023/10/28 01:30:34;;;;;;;0.52;0.52;;;;;;;;;;5023856;28;20073;-86
2023/10/28 01:33:02;;;;;;;0.50;0.50;;;;;;;;;;5021445;28;20117;-87
2023/10/28 01:35:29;;;;;;;0.50;0.50;;;;;;;;;;5019476;28;20149;-86
2023/10/28 01:37:55;;;;;;;0.50;0.50;;;;;;;;;;5019339;28;20026;-86
2023/10/28 01:40:21;;;;;;;0.50;0.50;;;;;;;;;;5019730;28;20021;-86
2023/10/28 01:42:47;;;;;;;0.50;0.50;;;;;;;;;;5019274;28;20061;-87
2023/10/28 01:45:13;;;;;;;0.60;0.60;;;;;;;;;;5018484;28;20032;-87
2023/10/28 01:47:41;;;;;;;0.50;0.50;;;;;;;;;;5016538;28;20022;-86
2023/10/28 01:50:07;;;;;;;0.65;0.65;;;;;;;;;;5016297;28;20029;-87
2023/10/28 01:52:33;;;;;;;0.60;0.60;;;;;;;;;;5016527;28;20084;-87
2023/10/28 01:54:59;;;;;;;0.50;0.50;;;;;;;;;;5015879;28;20109;-87
2023/10/28 01:57:26;;;;;;;0.65;0.65;;;;;;;;;;5021093;28;20030;-86
2023/10/28 01:59:52;;;;;;;0.50;0.50;;;;;;;;;;5022527;28;20048;-86
2023/10/28 02:02:18;;;;;;;0.70;0.70;;;;;;;;;;5017730;28;20021;-87
2023/10/28 02:04:45;;;;;;;0.60;0.60;;;;;;;;;;5015580;28;20022;-86
2023/10/28 02:07:11;;;;;;;0.60;0.60;;;;;;;;;;5015730;28;20041;-87
2023/10/28 02:09:37;;;;;;;0.60;0.60;;;;;;;;;;5016257;28;20033;-87
2023/10/28 02:12:04;;;;;;;0.50;0.50;;;;;;;;;;5016899;28;20123;-86
2023/10/28 02:14:30;;;;;;;0.50;0.50;;;;;;;;;;5016159;28;20053;-87
2023/10/28 02:16:56;;;;;;;0.50;0.50;;;;;;;;;;5015326;28;20117;-87
2023/10/28 02:19:23;;;;;;;0.55;0.55;;;;;;;;;;5015187;28;20529;-87
2023/10/28 02:21:49;;;;;;;0.50;0.50;;;;;;;;;;5015000;28;20030;-88
2023/10/28 02:24:19;;;;;;;0.50;0.50;;;;;;;;;;5014929;28;20061;-87
2023/10/28 02:26:46;;;;;;;0.50;0.50;;;;;;;;;;5015520;28;20113;-87
2023/10/28 02:29:12;;;;;;;0.50;0.50;;;;;;;;;;5015249;28;20033;-87
2023/10/28 02:31:38;;;;;;;0.50;0.50;;;;;;;;;;5015689;28;20524;-87
2023/10/28 02:34:07;;;;;;;0.50;0.50;;;;;;;;;;5014843;28;20037;-87
2023/10/28 02:36:33;;;;;;;0.60;0.60;;;;;;;;;;5015295;28;20104;-87
2023/10/28 02:39:00;;;;;;;0.50;0.50;;;;;;;;;;5016136;28;20366;-87
2023/10/28 02:41:27;;;;;;;0.50;0.50;;;;;;;;;;5014678;28;20065;-87
2023/10/28 02:43:53;;;;;;;0.50;0.50;;;;;;;;;;5016425;28;20508;-88
2023/10/28 02:46:22;;;;;;;0.50;0.50;;;;;;;;;;5014839;28;20030;-87
2023/10/28 02:48:48;;;;;;;0.40;0.40;;;;;;;;;;5027540;28;20064;-88
2023/10/28 02:51:14;;;;;;;0.50;0.50;;;;;;;;;;5037760;28;20086;-87
2023/10/28 02:53:40;;;;;;;0.50;0.50;;;;;;;;;;5015628;28;20450;-87
2023/10/28 02:56:08;;;;;;;0.60;0.60;;;;;;;;;;5014306;28;20018;-87
2023/10/28 02:58:35;;;;;;;0.52;0.52;;;;;;;;;;5014471;28;20021;-87
2023/10/28 03:01:13;;;;;;;0.50;0.50;;;;;;;;;;5014523;28;20033;-87
2023/10/28 03:03:41;;;;;;;0.50;0.50;;;410.10;2355.20;;;;;;5014624;28;20368;-87
2023/10/28 03:06:07;;;;;;;0.47;0.47;;;410.00;2355.20;;;;;;5014330;28;20037;-87
2023/10/28 03:08:33;;;;;;;0.50;0.50;;;410.00;2355.20;;;;;;5014315;28;20034;-87
2023/10/28 03:11:00;;;;;;;0.50;0.50;;;410.00;2355.20;;;;;;5013967;28;20038;-87
2023/10/28 03:13:26;;;;;;;0.60;0.60;;;409.90;2355.20;;;;;;5014227;28;20381;-87
2023/10/28 03:15:51;;;;;;;0.40;0.40;;;409.90;2355.20;;;;;;5014064;28;20056;-87
2023/10/28 03:18:17;;;;;;;0.55;0.55;;;409.70;2355.20;;;;;;5014027;28;20037;-87
2023/10/28 03:20:43;;;;;;;0.57;0.57;;;409.60;2355.20;;;;;;5015237;28;20033;-87
2023/10/28 03:23:09;;;;;;;0.50;0.50;;;409.70;2355.20;;;;;;5014183;28;20030;-87
2023/10/28 03:25:35;;;;;;;0.50;0.50;;;409.70;2355.20;;;;;;5015152;28;20476;-88
2023/10/28 03:28:00;;;;;;;0.60;0.60;;;409.70;2355.20;;;;;;5014161;28;20064;-88
2023/10/28 03:30:27;;;;;;;0.50;0.50;;;409.60;2355.20;;;;;;5014004;28;20057;-87
2023/10/28 03:32:52;;;;;;;0.50;0.50;;;409.70;2355.20;;;;;;5014334;28;20135;-87
2023/10/28 03:35:18;;;;;;;0.50;0.50;;;409.70;2355.20;;;;;;5013750;28;20485;-87
2023/10/28 03:37:44;;;;;;;0.65;0.65;;;409.70;2355.20;;;;;;5015188;28;20448;-87
2023/10/28 03:40:11;;;;;;;0.50;0.50;;;409.70;2355.20;;;;;;5014317;28;20033;-87
2023/10/28 03:42:37;;;;;;;0.60;0.60;;;409.60;2355.20;;;;;;5015350;28;20026;-87
2023/10/28 03:45:04;;;;;;;0.60;0.60;;;384.60;2329.60;;;;;;5013626;28;20036;-87
2023/10/28 03:47:30;;;;;;;0.57;0.57;;;384.60;2329.60;;;;;;5014296;28;20492;-87
2023/10/28 03:49:56;;;;;;;0.60;0.60;;;384.60;2329.60;;;;;;5014126;28;20026;-87
2023/10/28 03:52:22;;;;;;;0.50;0.50;;;384.50;2329.60;;;;;;5014004;28;20500;-87
2023/10/28 03:54:47;;;;;;;0.50;0.50;;;384.60;2329.60;;;;;;5013753;28;20117;-88
2023/10/28 03:57:13;;;;;;;0.60;0.60;;;384.70;2329.60;;;;;;5014682;28;20081;-87
2023/10/28 03:59:39;;;;;;;0.70;0.63;;;384.70;2329.60;;;;;;5013711;28;20025;-87
2023/10/28 04:02:05;;;;;;;0.60;0.60;;;384.70;2329.60;;;;;;5014092;28;20057;-88
2023/10/28 04:04:30;;;;;;;0.60;0.60;;;384.70;2329.60;;;;;;5013841;28;20053;-87
2023/10/28 04:06:56;;;;;;;0.50;0.50;;;384.80;2329.60;;;;;;5013438;28;20358;-88
2023/10/28 04:09:22;;;;;;;0.63;0.63;;;384.80;2329.60;;;;;;5014458;28;20462;-87
2023/10/28 04:11:48;;;;;;;0.50;0.50;;;384.50;2329.60;;;;;;5013524;28;20374;-87
2023/10/28 04:14:14;;;;;;;0.70;0.60;;;384.60;2329.60;;;;;;5014920;28;20022;-88
2023/10/28 04:16:39;;;;;;;0.57;0.57;;;384.70;2329.60;;;;;;5013768;28;20068;-88
2023/10/28 04:19:05;;;;;;;1.50;0.80;;;384.40;2329.60;;;;;;5013302;28;20477;-88
2023/10/28 04:21:32;;;;;;;2.05;1.08;;;;;;;;;;5014086;28;20125;-87
2023/10/28 04:23:58;;;;;;;0.73;0.73;;;;;;;;;;5013743;28;20025;-87
2023/10/28 04:26:24;;;;;;;0.60;0.60;;;;;;;;;;5013681;28;20038;-88
2023/10/28 04:28:50;;;;;;;0.60;0.60;;;;;;;;;;5014294;28;20022;-88
2023/10/28 04:31:16;;;;;;;0.50;0.50;;;;;;;;;;5014765;28;20117;-88
2023/10/28 04:33:42;;;;;;;0.60;0.60;;;;;;;;;;5013807;28;20030;-88
2023/10/28 04:36:09;;;;;;;0.60;0.60;;;;;;;;;;5013420;28;20050;-88
2023/10/28 04:38:39;;;;;;;0.50;0.50;;;;;;;;;;5013647;28;20434;-88
2023/10/28 04:41:05;;;;;;;0.70;0.70;;;;;;;;;;5013175;28;20026;-88
2023/10/28 04:43:31;;;;;;;0.50;0.50;;;;;;;;;;5013478;28;20088;-88
2023/10/28 04:45:57;;;;;;;0.50;0.50;;;;;;;;;;5015556;28;20057;-88
2023/10/28 04:48:27;;;;;;;0.80;0.60;;;;;;;;;;5013639;28;20373;-88
2023/10/28 04:50:53;;;;;;;0.50;0.50;;;;;;;;;;5013560;28;20481;-88
2023/10/28 04:53:19;;;;;;;0.60;0.60;;;;;;;;;;5015324;28;20064;-88
2023/10/28 04:55:46;;;;;;;0.60;0.60;;;;;;;;;;5016881;28;20018;-88
2023/10/28 04:58:12;;;;;;;0.50;0.50;;;;;;;;;;5018492;28;20018;-88
2023/10/28 05:00:38;;;;;;;0.50;0.50;;;;;;;;;;5017225;28;20075;-88
2023/10/28 05:03:04;;;;;;;0.60;0.60;;;;;;;;;;5017465;28;20461;-88
2023/10/28 05:05:30;;;;;;;0.70;0.70;;;;;;;;;;5018373;28;20025;-87
2023/10/28 05:07:56;;;;;;;0.73;0.73;;;;;;;;;;5016522;28;20037;-88
2023/10/28 05:10:22;;;;;;;0.50;0.50;;;;;;;;;;5016468;28;20026;-89
2023/10/28 05:12:49;;;;;;;0.65;0.60;;;;;;;;;;5017324;28;20037;-89
2023/10/28 05:15:15;;;;;;;0.60;0.50;;;;;;;;;;5016547;28;20030;-88
2023/10/28 05:17:42;;;;;;;0.60;0.60;;;;;;;;;;5017894;28;20014;-88
2023/10/28 05:20:08;;;;;;;0.60;0.60;;;;;;;;;;5016638;28;20109;-89
2023/10/28 05:22:41;;;;;;;2.03;0.77;;;;;;;;;;5016889;28;20030;-89
2023/10/28 05:25:08;;;;;;;1.25;0.80;;;;;;;;;;5017191;28;20060;-89
2023/10/28 05:27:35;;;;;;;0.60;0.60;;;;;;;;;;5017495;28;20060;-88
2023/10/28 05:30:01;;;;;;;0.60;0.60;;;;;;;;;;5016212;28;20374;-88
2023/10/28 05:32:29;;;;;;;0.95;0.73;;;;;;;;;;5017849;28;20029;-88
2023/10/28 05:34:56;;;;;;;0.50;0.50;;;;;;;;;;5031574;28;20022;-87
2023/10/28 05:37:22;;;;;;;0.80;0.80;;;;;;;;;;5037446;28;20030;-88
2023/10/28 05:39:50;;;;;;;0.50;0.50;;;;;;;;;;5016127;28;20053;-87
2023/10/28 05:42:16;;;;;;;0.55;0.55;;;;;;;;;;5015970;28;20029;-88
2023/10/28 05:44:43;;;;;;;0.60;0.60;;;;;;;;;;5017269;28;20022;-88
2023/10/28 05:47:11;;;;;;;0.70;0.70;;;;;;;;;;5016506;28;20458;-88
2023/10/28 05:49:37;;;;;;;0.70;0.70;;;;;;;;;;5015810;28;20156;-88
2023/10/28 05:52:04;;;;;;;0.60;0.60;;;;;;;;;;5015877;28;20058;-87
2023/10/28 05:54:31;;;;;;;0.50;0.50;;;;;;;;;;5016176;28;20115;-87
2023/10/28 05:56:57;;;;;;;0.60;0.60;;;;;;;;;;5016026;28;20520;-89
2023/10/28 05:59:23;;;;;;;0.85;0.80;;;;;;;;;;5022788;28;20046;-87
2023/10/28 06:01:49;;;;;;;0.70;0.70;;;;;;;;;;5040027;28;20014;-88
2023/10/28 06:04:16;;;;;;;0.68;0.68;;;;;;;;;;5028377;28;20026;-88
2023/10/28 06:06:42;;;;;;;0.50;0.50;;;;;;;;;;5028184;28;20022;-87
2023/10/28 06:09:11;;;;;;;0.65;0.65;;;;;;;;;;5029648;28;20026;-88
2023/10/28 06:11:37;;;;;;;0.60;0.60;;;;;;;;;;5017855;28;20034;-88
2023/10/28 06:14:03;;;;;;;0.60;0.60;;;;;;;;;;5017984;28;20018;-87
2023/10/28 06:16:30;;;;;;;0.80;0.80;;;;;;;;;;5017496;28;20040;-88
2023/10/28 06:18:56;;;;;;;0.63;0.63;;;;;;;;;;5016625;28;20116;-89
2023/10/28 06:21:23;;;;;;;0.50;0.50;;;;;;;;;;5017890;28;20029;-88
2023/10/28 06:23:49;;;;;;;0.57;0.57;;;;;;;;;;5015119;28;20033;-88
2023/10/28 06:26:15;;;;;;;0.60;0.60;;;;;;;;;;5016525;28;20026;-88
2023/10/28 06:28:43;;;;;;;0.70;0.70;;;;;;;;;;5015266;28;20030;-87
2023/10/28 06:31:09;;;;;;;0.95;0.90;;;;;;;;;;5015442;28;20033;-87
2023/10/28 06:33:35;;;;;;;0.60;0.60;;;;;;;;;;5015832;28;20115;-88
2023/10/28 06:36:03;;;;;;;0.80;0.75;;;;;;;;;;5015059;28;20116;-87
2023/10/28 06:38:30;;;;;;;0.60;0.60;;;;;;;;;;5015191;28;20018;-88
2023/10/28 06:40:57;;;;;;;0.68;0.68;;;;;;;;;;5015583;28;20056;-87
2023/10/28 06:43:23;;;;;;;0.70;0.70;;;;;;;;;;5014858;28;20029;-88
2023/10/28 06:45:50;;;;;;;0.50;0.50;;;;;;;;;;5015572;28;20068;-88
2023/10/28 06:48:16;;;;;;;1.02;0.93;;;;;;;;;;5014802;28;20022;-88
2023/10/28 06:50:43;;;;;;;0.60;0.60;;;;;;;;;;5014600;28;20033;-87
2023/10/28 06:53:09;;;;;;;0.68;0.68;;;;;;;;;;5015619;28;20026;-88
2023/10/28 06:55:35;;;;;;;0.60;0.60;;;;;;;;;;5014558;28;20026;-88
2023/10/28 06:58:01;;;;;;;0.80;0.80;;;;;;;;;;5015803;28;20025;-87
2023/10/28 07:00:28;;;;;;;0.63;0.63;;;;;;;;;;5015509;28;20082;-88
2023/10/28 07:02:55;;;;;;;0.60;0.60;;;;;;;;;;5016378;28;20545;-87
2023/10/28 07:05:21;;;;;;;1.35;0.93;;;;;;;;;;5014680;28;20465;-88
2023/10/28 07:07:48;;;;;;;0.60;0.60;;;;;;;;;;5014007;28;20076;-88
2023/10/28 07:10:14;;;;;;;1.05;0.82;;;;;;;;;;5015246;28;20346;-88
2023/10/28 07:12:43;;;;;;;0.50;0.50;;;;;;;;;;5015420;28;20543;-88
2023/10/28 07:15:10;;;;;;;0.73;0.70;;;;;;;;;;5014682;28;20026;-88
2023/10/28 07:17:36;;;;;;;0.77;0.77;;;;;;;;;;5014344;28;20029;-88
2023/10/28 07:20:03;;;;;;;0.70;0.70;;;;;;;;;;5014768;28;20029;-87
2023/10/28 07:22:31;;;;;;;1.02;0.75;;;;;;;;;;5015592;28;20036;-87
2023/10/28 07:24:57;;;;;;;0.75;0.75;;;;;;;;;;5014153;28;20022;-88
2023/10/28 07:27:23;;;;;;;0.70;0.70;;;;;;;;;;5014247;28;20515;-88
2023/10/28 07:29:50;;;;;;;0.60;0.60;;;;;;;;;;5014324;28;20026;-87
2023/10/28 07:32:16;;;;;;;0.60;0.60;;;;;;;;;;5014432;28;20124;-86
2023/10/28 07:34:42;;;;;;;0.80;0.70;;;;;;;;;;5013571;28;20022;-87
2023/10/28 07:37:08;;;;;;;1.00;0.80;;;;;;;;;;5014275;28;20421;-88
2023/10/28 07:39:34;;;;;;;0.70;0.63;;;;;;;;;;5014575;28;20029;-88
2023/10/28 07:42:01;;;;;;;0.63;0.63;;;;;;;;;;5014258;28;20033;-87
2023/10/28 07:44:27;;;;;;;0.63;0.57;;;;;;;;;;5014579;28;20053;-87
2023/10/28 07:46:53;;;;;;;0.60;0.60;;;;;;;;;;5014984;28;20025;-87
2023/10/28 07:49:19;;;;;;;0.60;0.60;;;;;;;;;;5015076;28;20048;-87
2023/10/28 07:51:46;;;;;;;0.68;0.68;;;;;;;;;;5014484;28;20030;-87
2023/10/28 07:54:12;;;;;;;0.88;0.88;;;;;;;;;;5014804;28;20157;-89
2023/10/28 07:56:38;;;;;;;0.82;0.82;;;;;;;;;;5013857;28;20144;-87
2023/10/28 07:59:04;;;;;;;0.80;0.80;;;;;;;;;;5014022;28;20040;-89
2023/10/28 08:01:30;;;;;;;0.60;0.60;;;;;;;;;;5014108;28;20034;-88
2023/10/28 08:03:57;;;;;;;0.50;0.50;;;;;;;;;;5013873;28;20030;-89
2023/10/28 08:06:24;;;;;;;0.50;0.50;;;;;;;;;;5015212;28;20017;-88
2023/10/28 08:08:53;;;;;;;0.60;0.60;;;;;;;;;;5006079;28;20033;-90
2023/10/28 08:11:21;;;;;;;0.50;0.50;;;;;;;;;;5012799;28;20042;-89
2023/10/28 08:13:48;;;;;;;0.60;0.60;;;;;;;;;;5013395;28;20053;-88
2023/10/28 08:16:18;;;;;;;0.50;0.50;;;;;;;;;;5013632;28;20488;-89
2023/10/28 08:18:44;;;;;;;0.50;0.50;;;;;;;;;;5013225;28;20032;-90
2023/10/28 08:21:13;;;;;;;0.50;0.50;;;;;;;;;;5013881;28;20026;-88
2023/10/28 08:23:40;;;;;;;0.60;0.60;;;;;;;;;;5014876;28;20025;-89
2023/10/28 08:26:10;;;;;;;0.50;0.50;;;;;;;;;;5013897;28;20029;-87
2023/10/28 08:28:36;;;;;;;0.50;0.50;;;;;;;;;;5016151;28;20049;-88
2023/10/28 08:31:02;;;;;;;0.40;0.40;;;;;;;;;;5019239;28;20140;-86
2023/10/28 08:33:31;;;;;;;0.70;0.70;;;;;;;;;;5019462;28;20096;-87
2023/10/28 08:35:58;;;;;;;0.55;0.55;;;;;;;;;;5016803;28;20050;-90
2023/10/28 08:38:24;;;;;;;0.50;0.50;;;;;;;;;;5015512;28;20601;-90
2023/10/28 08:40:50;;;;;;;0.50;0.50;;;;;;;;;;5016477;28;20040;-89
2023/10/28 08:43:19;;;;;;;0.50;0.50;;;;;;;;;;5015667;28;20121;-87
2023/10/28 08:45:45;;;;;;;0.60;0.60;;;;;;;;;;5015165;28;20509;-85
2023/10/28 08:48:15;;;;;;;1.30;0.75;;;;;;;;;;5015379;28;20029;-81
2023/10/28 08:50:41;;;;;;;0.50;0.50;;;;;;;;;;5015535;28;20041;-85
2023/10/28 08:53:11;;;;;;;0.40;0.40;;;;;;;;;;5012439;28;20050;-86
2023/10/28 08:55:38;;;;;;;0.50;0.50;;;;;;;;;;4995494;28;20610;-85
2023/10/28 08:58:06;;;;;;;0.50;0.50;;;;;;;;;;4995550;28;20100;-87
2023/10/28 09:00:34;;;;;;;0.60;0.60;;;;;;;;;;4996321;28;20078;-86
2023/10/28 09:03:04;;;;;;;0.50;0.50;;;;;;;;;;5009632;28;20026;-86
2023/10/28 09:05:30;;;;;;;0.40;0.40;;;;;;;;;;5016092;28;20113;-85
2023/10/28 09:07:56;;;;;;;0.50;0.50;;;;;;;;;;5017695;28;20457;-87
2023/10/28 09:10:23;;;;;;;0.40;0.40;;;;;;;;;;5018254;28;20101;-89
2023/10/28 09:12:53;;;;;;;0.40;0.40;;;;;;;;;;5018053;28;20030;-88
2023/10/28 09:15:20;;;;;;;0.40;0.40;;;;;;;;;;5016265;28;20049;-88
2023/10/28 09:17:46;;;;;;;0.40;0.40;;;;;;;;;;5016979;28;20018;-86
2023/10/28 09:20:12;;;;;;;0.40;0.40;;;;;;;;;;5016073;28;20096;-87
2023/10/28 09:22:42;;;;;;;0.50;0.50;;;;;;;;;;5017459;28;20022;-86
2023/10/28 09:25:14;;;;;;;0.40;0.40;;;;;;;;;;5016915;28;20041;-85
2023/10/28 09:27:40;;;;;;;0.40;0.40;;;;;;;;;;5018811;28;20014;-86
2023/10/28 09:30:07;;;;;;;0.47;0.47;;;;;;;;;;5015724;28;20026;-87
2023/10/28 09:32:34;;;;;;;0.32;0.32;;;;;;;;;;5015794;28;20025;-87
2023/10/28 09:35:05;;;;;;;0.40;0.40;;;;;;;;;;5015330;28;20379;-86
2023/10/28 09:37:34;;;;;;;0.40;0.40;;;;;;;;;;5015692;28;20124;-86
2023/10/28 09:40:01;;;;;;;0.30;0.30;;;;;;;;;;5015448;28;20351;-85
2023/10/28 09:42:30;;;;;;;0.30;0.30;;;;;;;;;;5016118;28;20064;-85
2023/10/28 09:44:56;;;;;;;0.30;0.30;;;;;;;;;;5038661;28;20042;-85
2023/10/28 09:47:23;;;;;;;0.30;0.30;;;;;;;;;;5027271;28;20030;-86
2023/10/28 09:49:52;;;;;;;0.30;0.30;;;;;;;;;;5017036;28;20068;-86
2023/10/28 09:52:19;;;;;;;0.30;0.30;;;;;;;;;;5016532;28;20030;-87
2023/10/28 09:54:49;;;;;;;0.40;0.40;;;;;;;;;;5015546;28;20033;-85
2023/10/28 09:57:15;;;;;;;0.30;0.30;;;;;;;;;;5015368;28;20045;-86
2023/10/28 09:59:44;;;;;;;0.30;0.30;;;;;;;;;;5015242;28;20029;-85
2023/10/28 10:02:14;;;;;;;0.30;0.30;;;;;;;;;;5015737;28;20528;-87
2023/10/28 10:04:49;;;;;;;0.50;0.50;;;;;;;;;;5015477;28;20029;-89
2023/10/28 10:07:16;;;;;;;0.30;0.30;;;;;;;;;;5017572;28;20026;-86
2023/10/28 10:09:48;;;;;;;0.30;0.30;;;;;;;;;;5016007;28;20018;-88
2023/10/28 10:12:15;;;;;;;0.30;0.30;;;;;;;;;;5015796;28;20041;-87
2023/10/28 10:14:50;;;;;;;0.38;0.38;;;;;;;;;;5016533;28;20022;-87
2023/10/28 10:17:22;;;;;;;0.30;0.30;;;;;;;;;;5020829;28;20073;-88
2023/10/28 10:19:49;;;;;;;0.30;0.30;;;;;;;;;;5020822;28;20125;-88
2023/10/28 10:22:18;;;;;;;0.30;0.30;;;;;;;;;;5016182;28;20033;-88
2023/10/28 10:24:50;;;;;;;0.30;0.30;;;;;;;;;;5015020;28;20105;-86
2023/10/28 10:27:16;;;;;;;;;;;;;;;;;;5014503;28;20056;-89
2023/10/28 10:29:46;;;;;;;0.30;0.30;;;;;;;;;;5009428;28;19948;-88
2023/10/28 10:32:16;;;;;;;0.40;0.40;;;;;;;;;;4998243;28;20121;-88
2023/10/28 10:34:45;;;;;;;0.30;0.30;;;;;;;;;;5011586;28;20018;-87
2023/10/28 10:37:28;;;;;;;0.40;0.40;;;;;;;;;;5002275;28;20022;-87
2023/10/28 10:39:56;;;;;;;0.30;0.30;;;;;;;;;;5000437;28;20117;-86
2023/10/28 10:42:25;;;;;;;0.30;0.30;;;;;;;;;;5005667;28;20022;-87
2023/10/28 10:44:51;;;;;;;0.30;0.30;;;;;;;;;;5008584;28;20014;-87
2023/10/28 10:47:17;;;;;;;0.30;0.30;;;;;;;;;;5003243;28;20163;-86
2023/10/28 10:49:43;;;;;;;0.30;0.30;;;;;;;;;;5001438;28;20022;-87
2023/10/28 10:52:10;;;;;;;0.30;0.30;;;;;;;;;;5009962;28;20030;-87
2023/10/28 10:54:38;;;;;;;0.30;0.30;;;;;;;;;;4997709;28;20025;-88
2023/10/28 10:57:06;;;;;;;0.30;0.30;;;;;;;;;;5006669;28;20096;-87
2023/10/28 10:59:40;;;;;;;0.47;0.47;;;;;;;;;;5004713;28;20069;-88
2023/10/28 11:02:06;;;;;;;0.43;0.43;;;;;;;;;;4998456;28;20026;-87
2023/10/28 11:04:36;;;;;;;0.30;0.30;;;;;;;;;;5012012;28;20085;-87
2023/10/28 11:07:03;;;;;;;0.32;0.32;;;;;;;;;;4978677;28;20533;-87
2023/10/28 11:09:29;;;;;;;0.30;0.30;;;;;;;;;;5004705;28;20022;-88
2023/10/28 11:11:55;;;;;;;0.30;0.30;;;;;;;;;;4999605;28;20038;-86
2023/10/28 11:14:21;;;;;;;0.30;0.30;;;;;;;;;;5011567;28;20021;-87
2023/10/28 11:16:48;;;;;;;0.40;0.40;;;;;;;;;;5008541;28;20030;-85
2023/10/28 11:19:14;;;;;;;0.30;0.30;;;;;;;;;;5001945;28;20021;-88
2023/10/28 11:21:41;;;;;;;0.30;0.30;;;;;;;;;;5002828;28;20022;-85
2023/10/28 11:24:12;;;;;;;0.30;0.30;;;;;;;;;;5010442;28;20029;-86
2023/10/28 11:26:38;;;;;;;0.30;0.30;;;;;;;;;;4981581;28;20376;-87
2023/10/28 11:29:06;;;;;;;0.30;0.30;;;;;;;;;;5006521;28;20038;-86
2023/10/28 11:31:33;;;;;;;0.70;0.40;;;;;;;;;;5004762;28;20037;-84
2023/10/28 11:34:00;;;;;;;0.30;0.30;;;;;;;;;;4998531;28;20024;-83
2023/10/28 11:36:26;;;;;;;0.30;0.30;;;;;;;;;;5010319;28;20405;-85
2023/10/28 11:38:54;;;;;;;0.20;0.20;;;;;;;;;;4999302;28;20033;-85
2023/10/28 11:41:22;;;;;;;0.25;0.25;;;;;;;;;;5005219;28;20026;-84
2023/10/28 11:43:49;;;;;;;0.30;0.30;;;;;;;;;;5006738;28;20026;-83
2023/10/28 11:46:16;;;;;;;0.30;0.30;;;;;;;;;;4998552;28;20093;-85
2023/10/28 11:48:45;;;;;;;0.30;0.30;;;;;;;;;;5008451;28;20030;-84
2023/10/28 11:51:12;;;;;;;0.30;0.30;;;;;;;;;;5002091;28;20057;-86
2023/10/28 11:53:44;;;;;;;0.28;0.28;;;;;;;;;;5001920;28;20053;-87
2023/10/28 11:56:10;;;;;;;0.30;0.30;;;;;;;;;;5009787;28;20117;-84
2023/10/28 11:58:36;;;;;;;0.30;0.30;;;;;;;;;;4997546;28;20026;-84
2023/10/28 12:01:02;;;;;;;0.38;0.38;;;;;;;;;;5006162;28;20022;-85
2023/10/28 12:03:28;;;;;;;0.30;0.30;;;;;;;;;;5007516;28;20022;-84
2023/10/28 12:05:54;;;;;;;0.30;0.30;;;;;;;;;;5016946;28;20469;-85
2023/10/28 12:08:22;;;;;;;0.40;0.40;;;;;;;;;;5000270;28;20421;-84
2023/10/28 12:10:48;;;;;;;0.30;0.30;;;;;;;;;;5017774;28;20389;-84
2023/10/28 12:13:16;;;;;;;0.38;0.38;;;;;;;;;;5009207;28;20026;-83
2023/10/28 12:15:42;;;;;;;0.30;0.30;;;;;;;;;;5009423;28;20458;-84
2023/10/28 12:18:09;;;;;;;0.20;0.20;;;;;;;;;;5001169;28;20142;-85
2023/10/28 12:20:35;;;;;;;0.20;0.20;;;;;;;;;;5013006;28;20050;-84
2023/10/28 12:23:02;;;;;;;0.30;0.30;;;;;;;;;;5009318;28;20044;-83
2023/10/28 12:25:28;;;;;;;0.20;0.20;;;717.60;1638.40;;;;;;5016515;28;20037;-84
2023/10/28 12:27:55;;;;;;;0.77;0.50;;;;;;;;;;5016869;28;20033;-83
2023/10/28 12:30:21;;;;;;;0.30;0.30;;;;;;;;;;5016493;28;20025;-84
2023/10/28 12:32:51;;;;;;;3.00;0.70;;;;;;;;;;5016991;28;20033;-85
2023/10/28 12:35:18;;;;;;;0.30;0.30;;;;;;;;;;5016645;28;20077;-85
2023/10/28 12:37:44;;;;;;;0.50;0.50;;;;;;;;;;5016443;28;20037;-87
2023/10/28 12:40:10;;;;;;;0.20;0.20;;;;;;;;;;5018374;28;20493;-84
2023/10/28 12:42:37;;;;;;;0.30;0.30;;;;;;;;;;5027993;28;20034;-86
2023/10/28 12:45:04;;;;;;;0.30;0.30;;;;;;;;;;5029008;28;20024;-85
2023/10/28 12:47:30;;;;;;;0.30;0.30;;;;;;;;;;5027471;28;20101;-85
2023/10/28 12:49:56;;;;;;;0.25;0.25;;;;;;;;;;5027954;28;20030;-85
2023/10/28 12:52:22;;;;;;;0.20;0.20;;;;;;;;;;5026408;28;20030;-86
2023/10/28 12:54:48;;;;;;;0.30;0.30;;;;;;;;;;5027230;28;20372;-85
2023/10/28 12:57:15;;;;;;;0.20;0.20;;;;;;;;;;5027644;28;20017;-85
2023/10/28 12:59:46;;;;;;;0.30;0.30;;;;;;;;;;5032824;28;20030;-85
2023/10/28 13:02:12;;;;;;;0.20;0.20;;;;;;;;;;5031187;28;20520;-84
2023/10/28 13:04:38;;;;;;;0.75;0.30;;;;;;;;;;5031806;28;20050;-85
2023/10/28 13:07:04;;;;;;;0.20;0.20;;;;;;;;;;5024180;28;21423;-84
2023/10/28 13:09:31;;;;;;;0.20;0.20;;;;;;;;;;5010923;28;20038;-85
2023/10/28 13:11:59;;;;;;;0.20;0.20;;;;;;;;;;5024196;28;20033;-84
2023/10/28 13:14:27;;;;;;;0.20;0.20;;;;;;;;;;5015990;28;20097;-85
2023/10/28 13:16:53;;;;;;;0.20;0.20;;;;;;;;;;5030857;28;20029;-83
2023/10/28 13:19:19;;;;;;;0.20;0.20;;;;;;;;;;5012049;28;20023;-86
2023/10/28 13:21:46;;;;;;;0.30;0.30;;;;;;;;;;5023119;28;20018;-88
2023/10/28 13:24:12;;;;;;;0.20;0.20;;;;;;;;;;5009031;28;20034;-87
2023/10/28 13:26:41;;;;;;;0.20;0.20;;;;;;;;;;5015535;28;20014;-88
2023/10/28 13:29:08;;;;;;;0.20;0.20;;;;;;;;;;5018508;28;20053;-87
2023/10/28 13:31:34;;;;;;;0.20;0.20;;;;;;;;;;5004177;28;20505;-89
2023/10/28 13:34:01;;;;;;;0.20;0.20;;;;;;;;;;5018008;28;20415;-88
2023/10/28 13:36:27;;;;;;;0.25;0.25;;;;;;;;;;5001982;28;20046;-88
2023/10/28 13:38:53;;;;;;;0.20;0.20;;;;;;;;;;5012783;28;20080;-85
2023/10/28 13:41:20;;;;;;;0.20;0.20;;;;;;;;;;5003291;28;20045;-86
2023/10/28 13:43:46;;;;;;;0.20;0.20;;;;;;;;;;5015978;28;20030;-87
2023/10/28 13:46:12;;;;;;;0.20;0.20;;;;;;;;;;5004774;28;20018;-88
2023/10/28 13:48:38;;;;;;;0.20;0.20;;;;;;;;;;5006140;28;20100;-88
2023/10/28 13:51:04;;;;;;;0.20;0.20;;;;;;;;;;4997266;28;20073;-89
2023/10/28 13:53:30;;;;;;;0.30;0.30;;;;;;;;;;5012965;28;20026;-88
2023/10/28 13:55:57;;;;;;;0.20;0.20;;;;;;;;;;5002820;28;20028;-87
2023/10/28 13:58:24;;;;;;;0.35;0.35;;;;;;;;;;5016183;28;20026;-88
2023/10/28 14:00:50;;;;;;;0.20;0.20;;;;;;;;;;5005336;28;20034;-87
2023/10/28 14:03:19;;;;;;;0.22;0.22;;;;;;;;;;4996418;28;20033;-89
2023/10/28 14:05:45;;;;;;;0.28;0.28;;;;;;;;;;5012917;28;20481;-88
2023/10/28 14:08:12;;;;;;;0.30;0.30;;;;;;;;;;5005309;28;20025;-88
2023/10/28 14:10:39;;;;;;;0.20;0.20;;;;;;;;;;5005531;28;20027;-88
2023/10/28 14:13:05;;;;;;;0.20;0.20;;;;;;;;;;5009112;28;20025;-88
2023/10/28 14:15:31;;;;;;;0.20;0.20;;;;;;;;;;4998474;28;20070;-87
2023/10/28 14:17:57;;;;;;;0.30;0.30;;;;;;;;;;5016278;28;20026;-87
2023/10/28 14:20:23;;;;;;;0.30;0.30;;;;;;;;;;5008490;28;20023;-88